createdAt,value
2017-12-04T00:01:00.929Z,96.86
2017-12-04T00:02:04.558Z,96.90
2017-12-04T00:03:07.616Z,96.87
2017-12-04T00:04:11.156Z,96.82
2017-12-04T00:05:14.652Z,96.83
2017-12-04T00:06:17.866Z,96.66
2017-12-04T00:07:21.274Z,96.79
2017-12-04T00:08:24.931Z,96.81
2017-12-04T00:09:27.872Z,96.99
2017-12-04T00:10:30.797Z,96.87
2017-12-04T00:11:33.793Z,96.86
2017-12-04T00:12:37.075Z,96.94
2017-12-04T00:13:41.853Z,96.96
2017-12-04T00:14:45.051Z,96.88
2017-12-04T00:15:47.934Z,96.88
2017-12-04T00:16:50.859Z,96.93
2017-12-04T00:17:53.978Z,97.01
2017-12-04T00:18:57.202Z,96.99
2017-12-04T00:20:00.942Z,97.08
2017-12-04T00:21:04.249Z,97.19
2017-12-04T00:22:07.623Z,97.20
2017-12-04T00:23:11.045Z,97.24
2017-12-04T00:24:14.167Z,97.38
2017-12-04T00:25:17.136Z,97.38
2017-12-04T00:26:20.275Z,97.34
2017-12-04T00:27:24.865Z,97.31
2017-12-04T00:28:27.952Z,97.27
2017-12-04T00:29:31.157Z,97.30
2017-12-04T00:30:34.166Z,97.27
2017-12-04T00:31:37.108Z,97.25
2017-12-04T00:32:40.094Z,97.31
2017-12-04T00:33:43.408Z,97.28
2017-12-04T00:34:46.447Z,97.27
2017-12-04T00:35:49.414Z,97.40
2017-12-04T00:36:52.473Z,97.47
2017-12-04T00:37:55.418Z,97.45
2017-12-04T00:38:59.106Z,97.47
2017-12-04T00:40:03.439Z,97.50
2017-12-04T00:41:06.463Z,97.51
2017-12-04T00:42:09.467Z,97.50
2017-12-04T00:43:12.528Z,97.49
2017-12-04T00:44:16.277Z,97.50
2017-12-04T00:45:19.413Z,97.51
2017-12-04T00:46:22.807Z,97.44
2017-12-04T00:47:25.767Z,97.24
2017-12-04T00:48:29.030Z,97.12
2017-12-04T00:49:32.212Z,96.89
2017-12-04T00:50:35.315Z,96.92
2017-12-04T00:51:38.697Z,96.89
2017-12-04T00:52:41.953Z,96.81
2017-12-04T00:53:44.996Z,96.84
2017-12-04T00:54:47.931Z,96.79
2017-12-04T00:55:50.876Z,96.88
2017-12-04T00:56:53.928Z,96.90
2017-12-04T00:57:56.875Z,96.80
2017-12-04T00:58:59.973Z,96.82
2017-12-04T01:00:03.175Z,96.86
2017-12-04T01:01:06.503Z,96.93
2017-12-04T01:02:09.934Z,97.29
2017-12-04T01:03:13.932Z,97.25
2017-12-04T01:04:17.460Z,97.28
2017-12-04T01:05:21.000Z,97.26
2017-12-04T01:06:24.068Z,97.20
2017-12-04T01:07:27.872Z,97.21
2017-12-04T01:08:31.667Z,97.23
2017-12-04T01:09:34.740Z,97.28
2017-12-04T01:10:38.244Z,97.13
2017-12-04T01:11:41.535Z,97.17
2017-12-04T01:12:45.327Z,97.37
2017-12-04T01:13:48.867Z,97.40
2017-12-04T01:14:52.773Z,97.36
2017-12-04T01:15:56.455Z,97.40
2017-12-04T01:16:59.780Z,97.38
2017-12-04T01:18:03.273Z,97.41
2017-12-04T01:19:06.719Z,97.37
2017-12-04T01:20:10.560Z,97.42
2017-12-04T01:21:14.041Z,97.33
2017-12-04T01:22:17.117Z,97.38
2017-12-04T01:23:21.250Z,97.35
2017-12-04T01:24:24.657Z,97.32
2017-12-04T01:25:28.091Z,97.34
2017-12-04T01:26:31.190Z,97.25
2017-12-04T01:27:44.740Z,97.24
2017-12-04T01:28:58.527Z,97.19
2017-12-04T01:34:34.004Z,96.72
2017-12-04T01:40:01.876Z,96.43
2017-12-04T01:42:29.099Z,96.51
2017-12-04T01:43:32.213Z,96.64
2017-12-04T01:44:35.547Z,96.72
2017-12-04T01:45:38.721Z,96.72
2017-12-04T01:46:41.780Z,96.75
2017-12-04T01:47:44.826Z,96.76
2017-12-04T01:48:48.389Z,96.76
2017-12-04T01:49:51.346Z,96.84
2017-12-04T01:50:54.369Z,96.72
2017-12-04T01:51:57.459Z,96.69
2017-12-04T01:53:00.477Z,96.57
2017-12-04T01:54:03.439Z,96.49
2017-12-04T01:55:06.719Z,96.29
2017-12-04T01:56:09.674Z,96.35
2017-12-04T01:57:12.679Z,96.17
2017-12-04T01:58:15.670Z,96.08
2017-12-04T01:59:18.634Z,96.09
2017-12-04T02:00:21.574Z,95.77
2017-12-04T02:01:24.788Z,95.63
2017-12-04T02:02:27.807Z,95.88
2017-12-04T02:03:30.779Z,95.99
2017-12-04T02:04:33.715Z,96.13
2017-12-04T02:05:36.708Z,96.07
2017-12-04T02:06:39.653Z,96.12
2017-12-04T02:07:43.289Z,96.11
2017-12-04T02:08:46.261Z,96.08
2017-12-04T02:09:49.295Z,96.06
2017-12-04T02:10:52.292Z,96.00
2017-12-04T02:11:55.291Z,95.91
2017-12-04T02:12:58.285Z,96.03
2017-12-04T02:14:01.537Z,96.10
2017-12-04T02:15:04.559Z,96.14
2017-12-04T02:16:07.566Z,96.00
2017-12-04T02:17:10.585Z,96.08
2017-12-04T02:18:13.523Z,96.11
2017-12-04T02:19:16.430Z,96.17
2017-12-04T02:20:19.691Z,96.28
2017-12-04T02:21:22.681Z,96.38
2017-12-04T02:22:25.683Z,96.36
2017-12-04T02:23:28.582Z,96.35
2017-12-04T02:24:31.594Z,96.37
2017-12-04T02:25:34.556Z,96.30
2017-12-04T02:26:37.940Z,96.32
2017-12-04T02:27:40.912Z,96.27
2017-12-04T02:28:43.892Z,96.31
2017-12-04T02:29:46.839Z,96.27
2017-12-04T02:30:49.795Z,96.30
2017-12-04T02:31:52.772Z,96.32
2017-12-04T02:32:56.005Z,96.24
2017-12-04T02:33:58.887Z,96.26
2017-12-04T02:35:01.759Z,96.26
2017-12-04T02:36:04.855Z,96.29
2017-12-04T02:37:07.925Z,96.23
2017-12-04T02:38:10.936Z,96.08
2017-12-04T02:39:14.317Z,96.06
2017-12-04T02:40:17.452Z,95.96
2017-12-04T02:41:20.512Z,95.88
2017-12-04T02:42:23.480Z,95.83
2017-12-04T02:43:26.578Z,95.90
2017-12-04T02:44:29.531Z,95.44
2017-12-04T02:45:32.846Z,95.02
2017-12-04T02:46:35.842Z,95.72
2017-12-04T02:47:38.956Z,95.25
2017-12-04T02:48:41.903Z,94.60
2017-12-04T02:49:44.931Z,94.80
2017-12-04T02:50:47.960Z,94.44
2017-12-04T02:51:51.233Z,94.66
2017-12-04T02:52:54.233Z,94.84
2017-12-04T02:53:57.359Z,94.99
2017-12-04T02:55:00.491Z,95.32
2017-12-04T02:56:03.673Z,95.14
2017-12-04T02:57:06.734Z,95.56
2017-12-04T02:58:10.133Z,95.29
2017-12-04T02:59:13.152Z,95.24
2017-12-04T03:00:16.130Z,94.83
2017-12-04T03:01:19.094Z,94.63
2017-12-04T03:02:22.047Z,94.57
2017-12-04T03:03:25.116Z,94.67
2017-12-04T03:04:28.420Z,94.47
2017-12-04T03:05:31.349Z,94.40
2017-12-04T03:06:34.349Z,94.38
2017-12-04T03:07:37.249Z,94.28
2017-12-04T03:08:40.164Z,94.27
2017-12-04T03:09:43.973Z,94.38
2017-12-04T03:10:47.166Z,94.47
2017-12-04T03:11:50.110Z,94.38
2017-12-04T03:12:53.077Z,94.59
2017-12-04T03:13:56.046Z,94.66
2017-12-04T03:14:59.068Z,94.77
2017-12-04T03:16:02.315Z,95.03
2017-12-04T03:17:05.400Z,94.94
2017-12-04T03:18:08.574Z,94.69
2017-12-04T03:19:11.703Z,94.43
2017-12-04T03:20:14.701Z,94.97
2017-12-04T03:21:17.602Z,95.21
2017-12-04T03:22:20.605Z,94.72
2017-12-04T03:23:24.004Z,94.50
2017-12-04T03:24:27.019Z,94.32
2017-12-04T03:25:29.960Z,94.93
2017-12-04T03:26:32.932Z,94.51
2017-12-04T03:27:35.940Z,94.36
2017-12-04T03:28:38.937Z,94.17
2017-12-04T03:29:42.212Z,94.13
2017-12-04T03:30:45.172Z,94.55
2017-12-04T03:31:48.151Z,94.75
2017-12-04T03:32:51.135Z,94.65
2017-12-04T03:33:54.111Z,94.69
2017-12-04T03:34:57.100Z,94.50
2017-12-04T03:36:00.365Z,94.66
2017-12-04T03:37:03.332Z,94.63
2017-12-04T03:38:06.353Z,94.34
2017-12-04T03:39:09.383Z,94.71
2017-12-04T03:40:12.423Z,94.89
2017-12-04T03:41:15.449Z,94.69
2017-12-04T03:42:18.732Z,94.94
2017-12-04T03:43:21.711Z,94.80
2017-12-04T03:44:24.676Z,94.86
2017-12-04T03:45:27.860Z,94.93
2017-12-04T03:46:30.892Z,94.86
2017-12-04T03:47:33.880Z,94.74
2017-12-04T03:48:36.854Z,95.15
2017-12-04T03:49:39.810Z,95.39
2017-12-04T03:50:42.781Z,95.41
2017-12-04T03:51:45.932Z,95.43
2017-12-04T03:52:48.889Z,95.38
2017-12-04T03:53:52.139Z,95.43
2017-12-04T03:54:55.105Z,95.45
2017-12-04T03:55:58.049Z,95.37
2017-12-04T03:57:01.101Z,95.27
2017-12-04T03:58:04.063Z,95.04
2017-12-04T03:59:07.030Z,95.07
2017-12-04T04:00:10.275Z,95.18
2017-12-04T04:01:13.261Z,95.05
2017-12-04T04:02:16.760Z,94.92
2017-12-04T04:03:19.752Z,94.89
2017-12-04T04:04:22.787Z,95.04
2017-12-04T04:05:25.748Z,94.78
2017-12-04T04:06:29.002Z,94.81
2017-12-04T04:07:31.975Z,94.69
2017-12-04T04:08:34.837Z,94.95
2017-12-04T04:09:37.735Z,94.76
2017-12-04T04:10:40.607Z,95.01
2017-12-04T04:11:43.458Z,94.80
2017-12-04T04:12:46.629Z,94.96
2017-12-04T04:13:49.523Z,95.00
2017-12-04T04:14:52.447Z,95.17
2017-12-04T04:15:55.428Z,94.99
2017-12-04T04:16:58.418Z,94.78
2017-12-04T04:18:01.392Z,94.92
2017-12-04T04:19:04.608Z,94.76
2017-12-04T04:20:07.544Z,94.78
2017-12-04T04:21:10.513Z,95.05
2017-12-04T04:22:13.455Z,94.65
2017-12-04T04:23:17.763Z,94.64
2017-12-04T04:24:20.741Z,94.08
2017-12-04T04:25:24.010Z,95.13
2017-12-04T04:26:27.020Z,94.49
2017-12-04T04:27:30.058Z,94.96
2017-12-04T04:28:33.099Z,95.27
2017-12-04T04:29:36.063Z,95.49
2017-12-04T04:30:39.176Z,95.59
2017-12-04T04:31:42.540Z,95.58
2017-12-04T04:32:45.522Z,96.18
2017-12-04T04:33:48.557Z,96.16
2017-12-04T04:34:51.543Z,96.00
2017-12-04T04:35:54.516Z,95.86
2017-12-04T04:36:57.476Z,95.71
2017-12-04T04:38:00.764Z,95.60
2017-12-04T04:39:03.768Z,95.22
2017-12-04T04:40:06.715Z,94.88
2017-12-04T04:41:09.704Z,95.04
2017-12-04T04:42:12.680Z,95.30
2017-12-04T04:43:15.649Z,95.10
2017-12-04T04:44:18.674Z,95.31
2017-12-04T04:45:21.657Z,95.04
2017-12-04T04:46:24.610Z,94.83
2017-12-04T04:47:27.621Z,95.14
2017-12-04T04:48:30.681Z,96.28
2017-12-04T04:49:33.931Z,96.54
2017-12-04T04:50:36.920Z,96.43
2017-12-04T04:51:40.073Z,96.58
2017-12-04T04:52:43.217Z,96.80
2017-12-04T04:53:46.354Z,96.89
2017-12-04T04:54:49.487Z,96.96
2017-12-04T04:55:52.843Z,96.89
2017-12-04T04:56:55.858Z,96.78
2017-12-04T04:57:58.844Z,96.64
2017-12-04T04:59:02.000Z,96.35
2017-12-04T05:00:04.962Z,95.88
2017-12-04T05:01:07.983Z,96.05
2017-12-04T05:02:10.971Z,96.41
2017-12-04T05:03:13.941Z,96.30
2017-12-04T05:04:16.964Z,95.93
2017-12-04T05:05:19.931Z,95.62
2017-12-04T05:06:22.892Z,95.50
2017-12-04T05:07:26.294Z,95.61
2017-12-04T05:08:29.336Z,96.19
2017-12-04T05:09:32.320Z,96.13
2017-12-04T05:10:35.308Z,96.12
2017-12-04T05:11:38.299Z,96.04
2017-12-04T05:12:41.279Z,95.85
2017-12-04T05:13:44.703Z,95.57
2017-12-04T05:14:47.643Z,95.35
2017-12-04T05:15:50.589Z,95.29
2017-12-04T05:16:53.543Z,95.23
2017-12-04T05:17:56.572Z,95.29
2017-12-04T05:18:59.589Z,95.56
2017-12-04T05:20:03.032Z,96.00
2017-12-04T05:21:06.112Z,96.13
2017-12-04T05:22:09.210Z,96.28
2017-12-04T05:23:12.191Z,96.35
2017-12-04T05:24:15.195Z,96.27
2017-12-04T05:25:18.203Z,96.14
2017-12-04T05:26:21.600Z,95.87
2017-12-04T05:27:24.568Z,95.38
2017-12-04T05:28:27.525Z,95.45
2017-12-04T05:29:30.463Z,95.41
2017-12-04T05:30:33.433Z,95.50
2017-12-04T05:31:36.513Z,95.44
2017-12-04T05:32:39.756Z,96.11
2017-12-04T05:33:42.720Z,96.04
2017-12-04T05:34:45.636Z,95.72
2017-12-04T05:35:48.729Z,95.18
2017-12-04T05:36:51.879Z,95.34
2017-12-04T05:37:54.884Z,95.00
2017-12-04T05:38:57.968Z,94.87
2017-12-04T05:40:00.945Z,94.93
2017-12-04T05:41:04.095Z,95.24
2017-12-04T05:42:07.199Z,95.24
2017-12-04T05:43:10.195Z,94.93
2017-12-04T05:44:13.291Z,95.27
2017-12-04T05:45:17.003Z,95.93
2017-12-04T05:46:20.147Z,95.90
2017-12-04T05:47:23.253Z,95.89
2017-12-04T05:48:26.349Z,95.78
2017-12-04T05:49:29.350Z,95.31
2017-12-04T05:50:32.342Z,95.50
2017-12-04T05:51:35.793Z,95.80
2017-12-04T05:52:38.844Z,95.12
2017-12-04T05:53:41.798Z,94.83
2017-12-04T05:54:44.749Z,94.90
2017-12-04T05:55:47.882Z,94.88
2017-12-04T05:56:50.926Z,95.00
2017-12-04T05:57:54.284Z,95.14
2017-12-04T05:58:57.349Z,94.67
2017-12-04T06:00:00.352Z,94.84
2017-12-04T06:01:03.275Z,95.43
2017-12-04T06:02:06.250Z,95.16
2017-12-04T06:03:09.867Z,94.80
2017-12-04T06:04:13.050Z,96.08
2017-12-04T06:05:15.924Z,96.44
2017-12-04T06:06:18.820Z,96.44
2017-12-04T06:07:21.840Z,96.26
2017-12-04T06:08:24.812Z,95.83
2017-12-04T06:09:27.794Z,95.68
2017-12-04T06:10:31.065Z,95.58
2017-12-04T06:11:34.034Z,95.32
2017-12-04T06:12:36.987Z,95.37
2017-12-04T06:13:39.928Z,95.48
2017-12-04T06:14:42.833Z,95.31
2017-12-04T06:15:45.812Z,94.77
2017-12-04T06:16:49.207Z,95.15
2017-12-04T06:17:52.176Z,95.19
2017-12-04T06:18:55.272Z,95.09
2017-12-04T06:19:58.298Z,95.43
2017-12-04T06:21:01.313Z,95.92
2017-12-04T06:22:04.306Z,95.86
2017-12-04T06:23:07.798Z,95.66
2017-12-04T06:24:11.770Z,95.79
2017-12-04T06:25:14.787Z,96.12
2017-12-04T06:26:17.854Z,96.16
2017-12-04T06:27:20.834Z,96.21
2017-12-04T06:28:23.799Z,96.21
2017-12-04T06:29:27.104Z,96.18
2017-12-04T06:30:30.299Z,96.10
2017-12-04T06:31:33.347Z,96.10
2017-12-04T06:32:37.011Z,96.26
2017-12-04T06:33:40.577Z,96.24
2017-12-04T06:34:43.572Z,96.19
2017-12-04T06:35:46.909Z,96.13
2017-12-04T06:36:49.908Z,96.12
2017-12-04T06:37:52.924Z,96.16
2017-12-04T06:38:56.889Z,96.11
2017-12-04T06:40:00.352Z,95.73
2017-12-04T06:41:03.349Z,95.64
2017-12-04T06:42:06.880Z,95.61
2017-12-04T06:43:09.975Z,95.84
2017-12-04T06:44:13.081Z,95.99
2017-12-04T06:45:16.051Z,95.91
2017-12-04T06:46:19.066Z,95.96
2017-12-04T06:47:22.199Z,96.05
2017-12-04T06:48:25.639Z,96.04
2017-12-04T06:49:28.795Z,95.96
2017-12-04T06:50:31.725Z,95.85
2017-12-04T06:51:34.698Z,95.84
2017-12-04T06:52:37.634Z,95.87
2017-12-04T06:53:40.623Z,96.01
2017-12-04T06:54:43.837Z,96.06
2017-12-04T06:55:46.818Z,95.96
2017-12-04T06:56:49.731Z,95.86
2017-12-04T06:57:52.686Z,95.68
2017-12-04T06:58:55.671Z,95.46
2017-12-04T06:59:58.687Z,95.72
2017-12-04T07:01:01.938Z,95.71
2017-12-04T07:02:04.880Z,95.43
2017-12-04T07:03:07.890Z,95.29
2017-12-04T07:04:10.871Z,95.27
2017-12-04T07:05:13.898Z,95.24
2017-12-04T07:06:17.018Z,95.12
2017-12-04T07:07:20.480Z,95.03
2017-12-04T07:08:23.511Z,95.14
2017-12-04T07:09:26.514Z,95.66
2017-12-04T07:10:29.776Z,95.87
2017-12-04T07:11:33.112Z,95.98
2017-12-04T07:12:36.302Z,95.85
2017-12-04T07:13:39.241Z,95.81
2017-12-04T07:14:42.212Z,95.87
2017-12-04T07:15:46.139Z,95.78
2017-12-04T07:16:49.735Z,95.62
2017-12-04T07:17:52.677Z,95.61
2017-12-04T07:18:56.124Z,95.60
2017-12-04T07:19:59.090Z,95.63
2017-12-04T07:21:02.180Z,95.66
2017-12-04T07:22:05.191Z,95.55
2017-12-04T07:23:08.262Z,95.70
2017-12-04T07:24:11.312Z,96.38
2017-12-04T07:25:14.607Z,96.50
2017-12-04T07:26:17.609Z,96.29
2017-12-04T07:27:20.635Z,95.88
2017-12-04T07:28:23.674Z,95.52
2017-12-04T07:29:26.771Z,95.26
2017-12-04T07:30:29.891Z,95.39
2017-12-04T07:31:33.290Z,95.35
2017-12-04T07:32:36.271Z,95.20
2017-12-04T07:33:39.365Z,95.46
2017-12-04T07:34:42.346Z,95.45
2017-12-04T07:35:45.357Z,95.22
2017-12-04T07:36:48.360Z,95.29
2017-12-04T07:37:51.741Z,95.31
2017-12-04T07:38:54.833Z,95.08
2017-12-04T07:39:57.853Z,94.97
2017-12-04T07:41:00.819Z,95.10
2017-12-04T07:42:03.849Z,95.15
2017-12-04T07:43:06.804Z,95.08
2017-12-04T07:44:10.204Z,94.75
2017-12-04T07:45:13.271Z,94.78
2017-12-04T07:46:16.333Z,94.94
2017-12-04T07:47:19.402Z,95.20
2017-12-04T07:48:22.401Z,95.21
2017-12-04T07:49:25.543Z,94.74
2017-12-04T07:50:28.917Z,95.14
2017-12-04T07:51:31.893Z,95.18
2017-12-04T07:52:34.869Z,95.07
2017-12-04T07:53:37.848Z,94.97
2017-12-04T07:54:40.833Z,94.63
2017-12-04T07:55:43.982Z,94.79
2017-12-04T07:56:47.427Z,95.07
2017-12-04T07:57:50.376Z,94.59
2017-12-04T07:58:53.511Z,94.43
2017-12-04T07:59:56.568Z,94.66
2017-12-04T08:00:59.618Z,94.39
2017-12-04T08:02:03.011Z,94.54
2017-12-04T08:03:06.090Z,94.90
2017-12-04T08:04:09.137Z,94.74
2017-12-04T08:05:12.463Z,95.08
2017-12-04T08:06:15.448Z,95.14
2017-12-04T08:07:18.746Z,95.23
2017-12-04T08:08:22.099Z,95.18
2017-12-04T08:09:25.228Z,95.12
2017-12-04T08:10:29.041Z,95.10
2017-12-04T08:11:32.036Z,94.95
2017-12-04T08:12:35.149Z,95.03
2017-12-04T08:13:38.260Z,94.99
2017-12-04T08:14:41.776Z,95.06
2017-12-04T08:15:44.809Z,94.65
2017-12-04T08:16:47.828Z,94.53
2017-12-04T08:17:50.768Z,94.74
2017-12-04T08:18:53.706Z,94.74
2017-12-04T08:19:56.776Z,95.07
2017-12-04T08:21:00.213Z,95.25
2017-12-04T08:22:03.228Z,95.30
2017-12-04T08:23:06.339Z,95.33
2017-12-04T08:24:09.440Z,95.41
2017-12-04T08:25:13.061Z,95.35
2017-12-04T08:26:16.091Z,95.54
2017-12-04T08:27:19.467Z,95.42
2017-12-04T08:28:22.622Z,95.63
2017-12-04T08:29:25.586Z,95.71
2017-12-04T08:30:28.750Z,95.90
2017-12-04T08:31:31.765Z,95.86
2017-12-04T08:32:34.781Z,95.85
2017-12-04T08:33:39.367Z,95.66
2017-12-04T08:34:42.524Z,95.36
2017-12-04T08:35:45.676Z,95.37
2017-12-04T08:36:48.708Z,95.19
2017-12-04T08:37:51.799Z,95.04
2017-12-04T08:38:54.825Z,95.00
2017-12-04T08:39:58.354Z,95.23
2017-12-04T08:41:01.357Z,95.11
2017-12-04T08:42:04.502Z,95.29
2017-12-04T08:43:07.485Z,95.24
2017-12-04T08:44:10.624Z,95.24
2017-12-04T08:45:13.654Z,95.33
2017-12-04T08:46:17.718Z,95.15
2017-12-04T08:47:20.851Z,95.20
2017-12-04T08:48:23.833Z,95.05
2017-12-04T08:49:26.955Z,94.94
2017-12-04T08:50:30.870Z,94.98
2017-12-04T08:51:33.861Z,94.98
2017-12-04T08:52:37.077Z,96.18
2017-12-04T08:53:40.096Z,96.49
2017-12-04T08:54:43.037Z,96.55
2017-12-04T08:55:46.124Z,96.60
2017-12-04T08:56:49.152Z,96.57
2017-12-04T08:57:52.177Z,96.35
2017-12-04T08:58:55.649Z,96.47
2017-12-04T08:59:58.939Z,96.55
2017-12-04T09:01:02.074Z,96.51
2017-12-04T09:02:05.101Z,96.39
2017-12-04T09:03:08.172Z,96.14
2017-12-04T09:04:11.192Z,96.01
2017-12-04T09:05:14.680Z,95.96
2017-12-04T09:06:17.835Z,96.21
2017-12-04T09:07:21.035Z,95.92
2017-12-04T09:08:24.168Z,95.83
2017-12-04T09:09:27.441Z,95.66
2017-12-04T09:10:30.398Z,95.71
2017-12-04T09:11:33.910Z,95.64
2017-12-04T09:12:37.119Z,95.58
2017-12-04T09:13:40.119Z,95.56
2017-12-04T09:14:43.148Z,95.66
2017-12-04T09:15:46.148Z,95.77
2017-12-04T09:16:49.164Z,95.64
2017-12-04T09:17:52.504Z,95.78
2017-12-04T09:18:55.520Z,95.87
2017-12-04T09:19:58.489Z,95.99
2017-12-04T09:21:01.543Z,95.85
2017-12-04T09:22:04.534Z,95.74
2017-12-04T09:23:07.642Z,95.60
2017-12-04T09:24:10.958Z,95.61
2017-12-04T09:25:13.924Z,95.76
2017-12-04T09:26:17.068Z,95.82
2017-12-04T09:27:20.117Z,95.86
2017-12-04T09:28:23.183Z,95.68
2017-12-04T09:29:26.367Z,95.78
2017-12-04T09:30:29.859Z,95.81
2017-12-04T09:31:32.863Z,95.77
2017-12-04T09:32:35.876Z,96.58
2017-12-04T09:33:38.899Z,96.75
2017-12-04T09:34:41.920Z,96.89
2017-12-04T09:35:45.424Z,96.91
2017-12-04T09:36:48.407Z,96.84
2017-12-04T09:37:51.421Z,96.70
2017-12-04T09:38:54.439Z,96.59
2017-12-04T09:39:57.476Z,96.47
2017-12-04T09:41:00.494Z,96.51
2017-12-04T09:42:03.926Z,96.41
2017-12-04T09:43:06.970Z,96.54
2017-12-04T09:44:10.040Z,96.50
2017-12-04T09:45:13.051Z,96.34
2017-12-04T09:46:16.567Z,95.77
2017-12-04T09:47:19.561Z,95.47
2017-12-04T09:48:22.953Z,94.80
2017-12-04T09:49:26.004Z,95.20
2017-12-04T09:50:29.043Z,95.20
2017-12-04T09:51:32.024Z,95.55
2017-12-04T09:52:35.038Z,95.41
2017-12-04T09:53:38.200Z,95.37
2017-12-04T09:54:41.627Z,95.35
2017-12-04T09:55:44.633Z,95.12
2017-12-04T09:56:47.684Z,94.56
2017-12-04T09:57:50.716Z,95.25
2017-12-04T09:58:53.748Z,95.48
2017-12-04T09:59:56.746Z,95.44
2017-12-04T10:00:59.746Z,95.58
2017-12-04T10:02:02.803Z,95.73
2017-12-04T10:03:05.820Z,95.60
2017-12-04T10:04:08.927Z,95.87
2017-12-04T10:05:11.884Z,95.66
2017-12-04T10:06:15.323Z,95.74
2017-12-04T10:07:18.321Z,95.79
2017-12-04T10:08:21.317Z,95.70
2017-12-04T10:10:31.560Z,95.48
2017-12-04T10:11:34.393Z,96.11
2017-12-04T10:12:37.364Z,96.22
2017-12-04T10:13:39.982Z,95.60
2017-12-04T10:14:42.625Z,95.39
2017-12-04T10:15:45.521Z,95.50
2017-12-04T10:16:48.205Z,95.24
2017-12-04T10:17:50.919Z,95.40
2017-12-04T10:18:54.036Z,95.53
2017-12-04T10:19:56.816Z,95.43
2017-12-04T10:20:59.555Z,95.32
2017-12-04T10:22:02.750Z,95.22
2017-12-04T10:23:05.489Z,95.17
2017-12-04T10:24:08.230Z,95.23
2017-12-04T10:25:11.503Z,95.23
2017-12-04T10:26:14.242Z,95.02
2017-12-04T10:27:16.976Z,94.77
2017-12-04T10:28:19.674Z,94.60
2017-12-04T10:29:22.449Z,94.80
2017-12-04T10:30:25.123Z,95.47
2017-12-04T10:31:28.203Z,95.72
2017-12-04T10:32:30.857Z,95.60
2017-12-04T10:33:33.493Z,95.43
2017-12-04T10:34:36.212Z,95.27
2017-12-04T10:35:38.984Z,95.16
2017-12-04T10:36:41.688Z,95.45
2017-12-04T10:37:45.343Z,95.44
2017-12-04T10:38:48.001Z,95.36
2017-12-04T10:39:50.836Z,95.33
2017-12-04T10:40:53.543Z,95.25
2017-12-04T10:41:56.326Z,94.88
2017-12-04T10:42:59.134Z,94.60
2017-12-04T10:44:06.485Z,94.48
2017-12-04T10:45:09.187Z,94.11
2017-12-04T10:46:11.970Z,94.09
2017-12-04T10:47:14.774Z,94.06
2017-12-04T10:48:17.502Z,94.08
2017-12-04T10:49:20.254Z,94.15
2017-12-04T10:50:23.396Z,93.93
2017-12-04T10:51:26.154Z,93.76
2017-12-04T10:52:28.939Z,93.91
2017-12-04T10:53:31.825Z,93.97
2017-12-04T10:54:34.631Z,94.11
2017-12-04T10:55:37.359Z,94.17
2017-12-04T10:56:40.507Z,94.14
2017-12-04T10:57:44.003Z,93.83
2017-12-04T10:58:46.850Z,93.79
2017-12-04T10:59:49.667Z,93.63
2017-12-04T11:00:52.599Z,94.05
2017-12-04T11:01:55.374Z,93.90
2017-12-04T11:02:58.482Z,93.73
2017-12-04T11:04:01.153Z,93.72
2017-12-04T11:05:03.873Z,93.73
2017-12-04T11:06:06.527Z,93.81
2017-12-04T11:07:09.280Z,93.68
2017-12-04T11:08:11.994Z,93.73
2017-12-04T11:09:15.234Z,93.74
2017-12-04T11:10:17.984Z,93.59
2017-12-04T11:11:20.654Z,93.85
2017-12-04T11:12:23.516Z,93.81
2017-12-04T11:13:26.207Z,95.20
2017-12-04T11:14:28.879Z,94.71
2017-12-04T11:15:31.583Z,93.86
2017-12-04T11:16:34.283Z,93.98
2017-12-04T11:17:37.111Z,94.13
2017-12-04T11:18:39.845Z,93.76
2017-12-04T11:19:42.512Z,93.65
2017-12-04T11:20:45.588Z,94.39
2017-12-04T11:21:48.388Z,95.27
2017-12-04T11:22:51.338Z,93.76
2017-12-04T11:23:54.118Z,93.70
2017-12-04T11:24:57.188Z,93.35
2017-12-04T11:26:00.337Z,93.53
2017-12-04T11:27:07.799Z,93.12
2017-12-04T11:28:10.491Z,93.51
2017-12-04T11:29:13.297Z,93.14
2017-12-04T11:30:16.015Z,93.14
2017-12-04T11:31:18.823Z,93.33
2017-12-04T11:32:21.508Z,93.42
2017-12-04T11:33:24.536Z,93.36
2017-12-04T11:34:27.267Z,93.31
2017-12-04T11:35:29.956Z,93.00
2017-12-04T11:36:32.638Z,92.74
2017-12-04T11:37:35.307Z,91.85
2017-12-04T11:38:38.052Z,91.66
2017-12-04T11:39:41.196Z,92.14
2017-12-04T11:40:44.023Z,92.18
2017-12-04T11:41:46.717Z,92.66
2017-12-04T11:42:49.424Z,92.26
2017-12-04T11:43:52.118Z,92.33
2017-12-04T11:44:54.887Z,92.23
2017-12-04T11:45:59.700Z,92.19
2017-12-04T11:47:02.667Z,92.51
2017-12-04T11:48:05.720Z,92.44
2017-12-04T11:49:09.169Z,92.90
2017-12-04T11:50:12.054Z,93.03
2017-12-04T11:51:15.689Z,92.81
2017-12-04T11:52:18.930Z,93.02
2017-12-04T11:53:22.018Z,93.00
2017-12-04T11:54:25.497Z,92.88
2017-12-04T11:55:36.038Z,92.82
2017-12-04T11:56:39.524Z,92.93
2017-12-04T11:57:42.308Z,92.84
2017-12-04T11:58:45.190Z,92.73
2017-12-04T11:59:48.940Z,92.86
2017-12-04T12:00:52.069Z,92.91
2017-12-04T12:01:54.758Z,92.92
2017-12-04T12:02:58.078Z,93.30
2017-12-04T12:04:00.780Z,93.29
2017-12-04T12:05:03.418Z,93.57
2017-12-04T12:06:06.135Z,93.05
2017-12-04T12:07:08.832Z,93.20
2017-12-04T12:08:12.181Z,93.23
2017-12-04T12:09:17.579Z,93.65
2017-12-04T12:10:22.562Z,93.54
2017-12-04T12:11:25.605Z,93.53
2017-12-04T12:12:28.446Z,93.38
2017-12-04T12:13:31.210Z,93.32
2017-12-04T12:14:33.925Z,93.34
2017-12-04T12:15:37.123Z,93.51
2017-12-04T12:16:40.501Z,93.56
2017-12-04T12:17:43.253Z,93.52
2017-12-04T12:18:45.954Z,93.76
2017-12-04T12:19:49.590Z,93.82
2017-12-04T12:20:52.275Z,93.56
2017-12-04T12:21:55.279Z,93.69
2017-12-04T12:22:58.073Z,93.64
2017-12-04T12:24:00.864Z,93.69
2017-12-04T12:25:03.640Z,93.90
2017-12-04T12:26:06.403Z,94.05
2017-12-04T12:27:09.078Z,94.19
2017-12-04T12:28:12.119Z,94.12
2017-12-04T12:29:14.899Z,94.33
2017-12-04T12:30:17.714Z,93.92
2017-12-04T12:31:20.473Z,93.75
2017-12-04T12:32:23.179Z,93.40
2017-12-04T12:33:25.880Z,93.98
2017-12-04T12:34:29.616Z,94.33
2017-12-04T12:35:32.474Z,94.59
2017-12-04T12:36:35.210Z,94.91
2017-12-04T12:37:37.922Z,95.05
2017-12-04T12:38:40.628Z,94.94
2017-12-04T12:39:43.342Z,94.53
2017-12-04T12:40:46.304Z,94.14
2017-12-04T12:41:48.950Z,94.26
2017-12-04T12:42:51.665Z,93.50
2017-12-04T12:43:54.311Z,93.29
2017-12-04T12:44:57.079Z,94.13
2017-12-04T12:45:59.762Z,94.15
2017-12-04T12:47:02.855Z,94.18
2017-12-04T12:48:06.573Z,94.04
2017-12-04T12:49:09.252Z,94.25
2017-12-04T12:50:11.975Z,95.22
2017-12-04T12:51:14.818Z,95.55
2017-12-04T12:52:17.619Z,95.82
2017-12-04T12:53:20.599Z,94.43
2017-12-04T12:54:23.299Z,93.84
2017-12-04T12:55:25.990Z,93.06
2017-12-04T12:56:28.787Z,93.66
2017-12-04T12:57:31.498Z,93.41
2017-12-04T12:58:34.244Z,95.11
2017-12-04T12:59:37.297Z,93.25
2017-12-04T13:00:40.007Z,92.85
2017-12-04T13:01:42.760Z,94.43
2017-12-04T13:02:45.553Z,93.08
2017-12-04T13:03:48.282Z,92.99
2017-12-04T13:04:50.972Z,93.10
2017-12-04T13:05:54.126Z,93.07
2017-12-04T13:06:56.816Z,93.15
2017-12-04T13:08:00.183Z,92.28
2017-12-04T13:09:02.955Z,92.41
2017-12-04T13:10:05.672Z,91.96
2017-12-04T13:11:08.415Z,92.50
2017-12-04T13:12:11.137Z,92.47
2017-12-04T13:13:13.847Z,92.51
2017-12-04T13:14:17.162Z,92.67
2017-12-04T13:15:19.864Z,92.53
2017-12-04T13:16:22.635Z,92.49
2017-12-04T13:17:25.945Z,92.36
2017-12-04T13:18:28.657Z,92.58
2017-12-04T13:19:31.398Z,92.37
2017-12-04T13:20:34.144Z,91.49
2017-12-04T13:21:36.878Z,91.68
2017-12-04T13:22:39.550Z,91.95
2017-12-04T13:23:42.607Z,91.40
2017-12-04T13:24:45.357Z,91.58
2017-12-04T13:25:48.097Z,91.69
2017-12-04T13:26:51.066Z,91.75
2017-12-04T13:27:53.855Z,91.72
2017-12-04T13:28:56.533Z,91.24
2017-12-04T13:29:59.674Z,91.20
2017-12-04T13:31:02.581Z,91.71
2017-12-04T13:32:05.388Z,91.63
2017-12-04T13:33:08.198Z,91.89
2017-12-04T13:34:10.877Z,92.00
2017-12-04T13:35:13.563Z,91.80
2017-12-04T13:36:16.627Z,92.06
2017-12-04T13:37:19.396Z,92.41
2017-12-04T13:38:21.996Z,92.45
2017-12-04T13:39:24.798Z,92.64
2017-12-04T13:40:27.448Z,92.59
2017-12-04T13:41:30.107Z,92.35
2017-12-04T13:42:33.175Z,92.44
2017-12-04T13:43:36.467Z,92.52
2017-12-04T13:44:39.231Z,92.48